Terminal Aerodrome Forecast
Issued by NWS

Home | Current Version | Previous Version | Text Only | Print | Product List | Glossary On
Versions: 1 2 3 4 5 6 7 8 9 10 11 12 13 14
000
FTUS45 KRIW 261700
TAFBPI
TAF
KBPI 261740Z 2618/2718 15006KT P6SM VCSH SCT015 OVC040
      TEMPO 2618/2621 4SM -SN OVC012
     FM262100 16006KT 5SM -SHSN BKN020
     FM270200 17006KT P6SM VCSH SCT025 BKN045
     FM270800 VRB04KT P6SM SCT050
     FM271300 VRB03KT P6SM VCFG SCT060=

USA.gov is the U.S. government's official web portal to all federal, state and local government web resources and services.